Time;durP1;ratioP1;P1;durP2;ratioP2;P2;SDS_P1;SDS_P2;PMS_P1;PMS_P2;Temp;Humidity;BMP_temperature;BMP_pressure;BME280_temperature;BME280_humidity;BME280_pressure;Samples;Min_cycle;Max_cycle;Signal;HPM_P1;HPM_P2
2022/04/23 00:02:03;;;;;;;13.27;9.27;;;;;;;;;;5033015;28;20046;-63
2022/04/23 00:04:30;;;;;;;11.50;8.90;;;;;;;;;;5035063;28;20049;-63
2022/04/23 00:06:56;;;;;;;12.57;9.05;;;;;;;;;;5034306;28;20042;-63
2022/04/23 00:09:22;;;;;;;12.13;8.82;;;;;;;;;;5034957;28;20065;-63
2022/04/23 00:11:48;;;;;;;11.48;8.48;;;;;;;;;;5035413;28;20052;-63
2022/04/23 00:14:14;;;;;;;11.15;8.77;;;;;;;;;;5035079;28;20041;-63
2022/04/23 00:16:40;;;;;;;17.13;9.75;;;;;;;;;;5034458;28;20041;-63
2022/04/23 00:19:06;;;;;;;12.30;8.60;;;;;;;;;;5035256;28;20041;-63
2022/04/23 00:21:32;;;;;;;14.65;10.30;;;;;;;;;;5033726;28;20052;-63
2022/04/23 00:23:58;;;;;;;14.07;9.40;;;;;;;;;;5034754;28;20041;-63
2022/04/23 00:26:24;;;;;;;13.23;9.18;;;;;;;;;;5035707;28;20040;-63
2022/04/23 00:28:50;;;;;;;13.43;9.45;;;;;;;;;;5033520;28;20048;-63
2022/04/23 00:31:16;;;;;;;12.45;10.18;;;;;;;;;;5034294;28;20045;-63
2022/04/23 00:33:42;;;;;;;12.20;8.82;;;;;;;;;;5035323;28;20041;-63
2022/04/23 00:36:10;;;;;;;12.45;9.95;;;;;;;;;;5034713;28;20041;-63
2022/04/23 00:38:40;;;;;;;13.40;9.55;;;;;;;;;;5035296;28;20202;-63
2022/04/23 00:41:07;;;;;;;11.30;9.50;;;;;;;;;;5034789;28;20519;-63
2022/04/23 00:43:33;;;;;;;13.48;10.00;;;;;;;;;;5034932;28;20443;-63
2022/04/23 00:46:00;;;;;;;12.65;9.05;;;;;;;;;;5034240;28;20042;-63
2022/04/23 00:48:26;;;;;;;13.05;9.85;;;;;;;;;;5034942;28;20075;-63
2022/04/23 00:50:53;;;;;;;13.68;10.65;;;;;;;;;;5035024;28;20041;-63
2022/04/23 00:53:21;;;;;;;12.88;10.30;;;;;;;;;;5033630;28;20052;-63
2022/04/23 00:55:48;;;;;;;16.63;10.40;;;;;;;;;;5035033;28;20057;-63
2022/04/23 00:58:17;;;;;;;16.15;10.90;;;;;;;;;;5035379;28;20472;-63
2022/04/23 01:00:46;;;;;;;14.18;10.45;;;;;;;;;;5038236;28;20047;-63
2022/04/23 01:03:13;;;;;;;12.98;10.00;;;;;;;;;;5039145;28;20044;-63
2022/04/23 01:05:44;;;;;;;17.75;10.75;;;;;;;;;;5038967;28;20053;-63
2022/04/23 01:08:11;;;;;;;15.20;10.48;;;;;;;;;;5037293;28;20052;-63
2022/04/23 01:10:37;;;;;;;14.75;11.43;;;;;;;;;;5039018;28;20120;-63
2022/04/23 01:13:03;;;;;;;16.85;11.18;;;;;;;;;;5038554;28;20128;-63
2022/04/23 01:15:29;;;;;;;14.70;11.20;;;;;;;;;;5038297;28;20045;-63
2022/04/23 01:17:55;;;;;;;14.57;11.40;;;;;;;;;;5038274;28;20073;-63
2022/04/23 01:20:22;;;;;;;14.68;11.32;;;;;;;;;;5037820;28;20325;-63
2022/04/23 01:22:49;;;;;;;16.42;11.38;;;;;;;;;;5038225;28;20049;-63
2022/04/23 01:25:15;;;;;;;16.10;11.38;;;;;;;;;;5038182;28;20377;-63
2022/04/23 01:27:42;;;;;;;16.45;11.05;;;;;;;;;;5038374;28;20124;-63
2022/04/23 01:30:10;;;;;;;14.48;11.25;;;;;;;;;;5037444;28;20309;-63
2022/04/23 01:32:36;;;;;;;14.63;11.10;;;;;;;;;;5038045;28;20049;-63
2022/04/23 01:35:06;;;;;;;14.05;10.38;;;;;;;;;;5037458;28;20049;-63
2022/04/23 01:37:32;;;;;;;12.25;10.55;;;;;;;;;;5038557;28;20049;-63
2022/04/23 01:39:59;;;;;;;19.20;11.40;;;;;;;;;;5038640;28;20038;-63
2022/04/23 01:42:25;;;;;;;12.90;10.50;;;;;;;;;;5038431;28;20099;-63
2022/04/23 01:44:51;;;;;;;14.15;10.60;;;;;;;;;;5037587;28;20037;-63
2022/04/23 01:47:17;;;;;;;16.48;10.23;;;;;;;;;;5036817;28;20045;-63
2022/04/23 01:49:44;;;;;;;16.25;10.88;;;;;;;;;;5038419;28;20472;-63
2022/04/23 01:52:10;;;;;;;13.10;10.20;;;;;;;;;;5037992;28;20048;-63
2022/04/23 01:54:36;;;;;;;13.45;10.07;;;;;;;;;;5038981;28;20048;-63
2022/04/23 01:57:03;;;;;;;13.70;10.43;;;;;;;;;;5038335;28;20049;-63
2022/04/23 01:59:29;;;;;;;14.80;9.38;;;;;;;;;;5037535;28;20041;-63
2022/04/23 02:01:55;;;;;;;14.77;10.18;;;;;;;;;;5037897;28;20099;-63
2022/04/23 02:04:21;;;;;;;16.35;10.13;;;;;;;;;;5037807;28;20049;-63
2022/04/23 02:06:47;;;;;;;14.68;9.43;;;;;;;;;;5037663;28;20084;-63
2022/04/23 02:09:14;;;;;;;15.55;10.05;;;;;;;;;;5037763;28;20116;-63
2022/04/23 02:11:40;;;;;;;13.65;9.68;;;;;;;;;;5038221;28;20037;-63
2022/04/23 02:14:05;;;;;;;11.52;9.20;;;;;;;;;;5037084;28;20044;-63
2022/04/23 02:16:32;;;;;;;14.45;9.25;;;;;;;;;;5037433;28;20037;-63
2022/04/23 02:18:58;;;;;;;11.32;8.98;;;;;;;;;;5036872;28;20071;-63
2022/04/23 02:21:25;;;;;;;12.85;8.65;;;;;;;;;;5036930;28;20100;-63
2022/04/23 02:23:51;;;;;;;11.30;9.00;;;;;;;;;;5038608;28;20033;-62
2022/04/23 02:26:17;;;;;;;11.55;8.38;;;;;;;;;;5036451;28;20064;-63
2022/04/23 02:28:44;;;;;;;13.27;9.10;;;;;;;;;;5036659;28;20127;-63
2022/04/23 02:31:10;;;;;;;15.80;9.68;;;;;;;;;;5038069;28;20045;-63
2022/04/23 02:33:37;;;;;;;14.48;10.05;;;;;;;;;;5036870;28;20041;-63
2022/04/23 02:36:06;;;;;;;16.27;10.30;;;;;;;;;;5036604;28;20045;-63
2022/04/23 02:38:32;;;;;;;12.75;9.32;;;;;;;;;;5037905;28;20392;-63
2022/04/23 02:40:58;;;;;;;13.15;9.13;;;;;;;;;;5038170;28;20041;-63
2022/04/23 02:43:25;;;;;;;13.30;9.38;;;;;;;;;;5037855;28;20103;-63
2022/04/23 02:45:52;;;;;;;12.93;9.52;;;;;;;;;;5038098;28;20124;-63
2022/04/23 02:48:18;;;;;;;12.98;9.70;;;;;;;;;;5037712;28;20072;-63
2022/04/23 02:50:45;;;;;;;14.48;10.02;;;;;;;;;;5036614;28;20059;-63
2022/04/23 02:53:13;;;;;;;15.82;9.63;;;;;;;;;;5037432;28;20419;-63
2022/04/23 02:55:40;;;;;;;13.57;9.68;;;;;;;;;;5035801;28;20041;-63
2022/04/23 02:58:07;;;;;;;16.90;10.15;;;;;;;;;;5035261;28;20048;-62
2022/04/23 03:00:34;;;;;;;16.27;10.48;;;;;;;;;;5037207;28;20041;-63
2022/04/23 03:03:00;;;;;;;13.73;10.02;;;;;;;;;;5037686;28;20034;-63
2022/04/23 03:05:26;;;;;;;16.95;9.75;;;;;;;;;;5036409;28;20099;-63
2022/04/23 03:07:53;;;;;;;14.20;9.75;;;;;;;;;;5037797;28;20072;-63
2022/04/23 03:10:20;;;;;;;12.35;9.70;;;;;;;;;;5037916;28;20464;-63
2022/04/23 03:12:46;;;;;;;13.75;10.35;;;;;;;;;;5037381;28;20060;-63
2022/04/23 03:15:13;;;;;;;13.95;11.27;;;;;;;;;;5037094;28;20423;-63
2022/04/23 03:17:40;;;;;;;14.32;10.07;;;;;;;;;;5035490;28;20041;-63
2022/04/23 03:20:08;;;;;;;14.90;10.48;;;;;;;;;;5036832;28;20045;-62
2022/04/23 03:22:34;;;;;;;16.05;10.30;;;;;;;;;;5035684;28;20053;-62
2022/04/23 03:25:00;;;;;;;14.85;10.50;;;;;;;;;;5037184;28;20036;-62
2022/04/23 03:27:26;;;;;;;16.92;10.57;;;;;;;;;;5036977;28;20084;-63
2022/04/23 03:29:52;;;;;;;14.85;10.38;;;;;;;;;;5036231;28;20515;-62
2022/04/23 03:32:18;;;;;;;12.85;9.90;;;;;;;;;;5036830;28;20037;-63
2022/04/23 03:34:44;;;;;;;14.52;9.88;;;;;;;;;;5037092;28;20049;-63
2022/04/23 03:37:10;;;;;;;14.05;9.15;;;;;;;;;;5035299;28;20045;-63
2022/04/23 03:39:37;;;;;;;12.35;9.63;;;;;;;;;;5037767;28;20041;-63
2022/04/23 03:42:05;;;;;;;16.58;10.30;;;;;;;;;;5035040;28;20076;-63
2022/04/23 03:44:31;;;;;;;12.25;9.88;;;;;;;;;;5036001;28;20068;-63
2022/04/23 03:46:58;;;;;;;14.77;9.80;;;;;;;;;;5037014;28;20046;-63
2022/04/23 03:49:24;;;;;;;13.20;9.13;;;;;;;;;;5035996;28;20068;-63
2022/04/23 03:51:51;;;;;;;12.75;9.90;;;;;;;;;;5036317;28;20080;-63
2022/04/23 03:54:17;;;;;;;12.85;9.50;;;;;;;;;;5036396;28;20081;-63
2022/04/23 03:56:43;;;;;;;12.95;9.85;;;;;;;;;;5036254;28;20052;-62
2022/04/23 03:59:10;;;;;;;13.80;9.52;;;;;;;;;;5035812;28;20068;-62
2022/04/23 04:01:37;;;;;;;13.32;9.90;;;;;;;;;;5034728;28;20037;-63
2022/04/23 04:04:03;;;;;;;13.30;9.52;;;;;;;;;;5036946;28;20103;-63
2022/04/23 04:06:30;;;;;;;13.23;10.00;;;;;;;;;;5033860;28;20109;-63
2022/04/23 04:08:56;;;;;;;13.10;9.93;;;;;;;;;;5036603;28;20407;-63
2022/04/23 04:11:22;;;;;;;12.13;10.10;;;;;;;;;;5035541;28;20060;-62
2022/04/23 04:13:48;;;;;;;13.90;9.52;;;;;;;;;;5035174;28;20041;-62
2022/04/23 04:16:15;;;;;;;12.25;9.70;;;;;;;;;;5034874;28;20053;-63
2022/04/23 04:18:41;;;;;;;12.15;9.48;;;;;;;;;;5034657;28;20053;-63
2022/04/23 04:21:08;;;;;;;12.23;9.55;;;;;;;;;;5034349;28;20388;-63
2022/04/23 04:23:34;;;;;;;13.80;10.35;;;;;;;;;;5034003;28;20261;-63
2022/04/23 04:26:00;;;;;;;13.07;10.45;;;;;;;;;;5035944;28;20391;-63
2022/04/23 04:28:26;;;;;;;13.15;10.10;;;;;;;;;;5035546;28;20046;-62
2022/04/23 04:33:45;;;;;;;11.40;9.48;;;;;;;;;;5021160;28;20044;-63
2022/04/23 04:36:11;;;;;;;12.38;9.32;;;;;;;;;;5040287;28;20045;-62
2022/04/23 04:38:38;;;;;;;12.82;9.85;;;;;;;;;;5039671;28;20389;-62
2022/04/23 04:41:04;;;;;;;12.13;8.95;;;;;;;;;;5040305;28;20041;-63
2022/04/23 04:43:31;;;;;;;13.93;10.07;;;;;;;;;;5038124;28;20057;-63
2022/04/23 04:45:57;;;;;;;12.65;10.02;;;;;;;;;;5040448;28;20137;-63
2022/04/23 04:48:23;;;;;;;13.43;9.65;;;;;;;;;;5039721;28;20384;-63
2022/04/23 04:50:49;;;;;;;12.60;10.05;;;;;;;;;;5039301;28;20484;-63
2022/04/23 04:53:15;;;;;;;11.55;9.60;;;;;;;;;;5040374;28;20037;-62
2022/04/23 04:55:41;;;;;;;13.25;10.38;;;;;;;;;;5039820;28;20069;-62
2022/04/23 04:58:07;;;;;;;13.23;9.93;;;;;;;;;;5038917;28;20041;-63
2022/04/23 05:00:33;;;;;;;12.63;9.45;;;;;;;;;;5039859;28;20443;-62
2022/04/23 05:02:59;;;;;;;12.73;10.07;;;;;;;;;;5039336;28;20052;-63
2022/04/23 05:05:25;;;;;;;15.77;9.57;;;;;;;;;;5039088;28;20045;-63
2022/04/23 05:07:51;;;;;;;13.43;9.52;;;;;;;;;;5040114;28;20049;-63
2022/04/23 05:10:18;;;;;;;12.23;9.70;;;;;;;;;;5039162;28;20053;-63
2022/04/23 05:12:44;;;;;;;11.98;9.45;;;;;;;;;;5037204;28;20501;-62
2022/04/23 05:15:11;;;;;;;14.50;9.35;;;;;;;;;;5039550;28;20042;-63
2022/04/23 05:17:38;;;;;;;14.18;8.52;;;;;;;;;;5039110;28;20071;-63
2022/04/23 05:20:05;;;;;;;12.68;8.90;;;;;;;;;;5037051;28;20455;-63
2022/04/23 05:22:31;;;;;;;14.77;9.52;;;;;;;;;;5039921;28;20053;-62
2022/04/23 05:24:57;;;;;;;10.18;8.52;;;;;;;;;;5039378;28;20403;-63
2022/04/23 05:27:26;;;;;;;10.95;8.85;;;;;;;;;;5038957;28;20030;-63
2022/04/23 05:29:52;;;;;;;12.48;9.82;;;;;;;;;;5038746;28;20049;-63
2022/04/23 05:32:18;;;;;;;11.68;9.57;;;;;;;;;;5038786;28;20034;-63
2022/04/23 05:34:44;;;;;;;11.48;9.25;;;;;;;;;;5038825;28;20498;-62
2022/04/23 05:37:10;;;;;;;10.55;9.13;;;;;;;;;;5038599;28;20160;-62
2022/04/23 05:39:37;;;;;;;11.48;9.23;;;;;;;;;;5037561;28;20128;-63
2022/04/23 05:42:03;;;;;;;12.73;9.38;;;;;;;;;;5037744;28;20042;-63
2022/04/23 05:44:29;;;;;;;11.05;9.30;;;;;;;;;;5038159;28;20097;-62
2022/04/23 05:46:55;;;;;;;13.10;10.20;;;;;;;;;;5037027;28;20069;-62
2022/04/23 05:49:21;;;;;;;13.18;10.10;;;;;;;;;;5036487;28;20064;-63
2022/04/23 05:51:47;;;;;;;11.63;9.68;;;;;;;;;;5038446;28;20527;-63
2022/04/23 05:54:12;;;;;;;10.90;9.55;;;;;;;;;;5038625;28;20065;-63
2022/04/23 05:56:38;;;;;;;11.63;9.65;;;;;;;;;;5037602;28;20034;-62
2022/04/23 05:59:04;;;;;;;12.05;9.85;;;;;;;;;;5037679;28;20120;-62
2022/04/23 06:01:31;;;;;;;13.57;10.65;;;;;;;;;;5038296;28;20117;-63
2022/04/23 06:03:57;;;;;;;11.85;10.52;;;;;;;;;;5037128;28;20127;-63
2022/04/23 06:06:23;;;;;;;13.27;10.30;;;;;;;;;;5036398;28;20053;-63
2022/04/23 06:08:49;;;;;;;12.30;9.77;;;;;;;;;;5053225;28;20042;-63
2022/04/23 06:11:15;;;;;;;14.40;10.75;;;;;;;;;;5037621;28;20037;-63
2022/04/23 06:13:41;;;;;;;14.38;10.80;;;;;;;;;;5038066;28;20403;-63
2022/04/23 06:16:07;;;;;;;14.20;10.07;;;;;;;;;;5038418;28;20050;-63
2022/04/23 06:18:33;;;;;;;11.45;9.82;;;;;;;;;;5036328;28;20048;-63
2022/04/23 06:20:59;;;;;;;13.38;10.30;;;;;;;;;;5035859;28;20037;-63
2022/04/23 06:23:25;;;;;;;12.77;10.70;;;;;;;;;;5037706;28;20128;-63
2022/04/23 06:25:52;;;;;;;14.98;10.65;;;;;;;;;;5037537;28;20061;-63
2022/04/23 06:28:18;;;;;;;12.45;10.50;;;;;;;;;;5037636;28;20065;-63
2022/04/23 06:30:45;;;;;;;13.90;11.45;;;;;;;;;;5036963;28;20038;-62
2022/04/23 06:33:11;;;;;;;13.82;10.27;;;;;;;;;;5036932;28;20043;-62
2022/04/23 06:35:37;;;;;;;14.73;10.82;;;;;;;;;;5036570;28;20113;-62
2022/04/23 06:38:04;;;;;;;17.00;11.15;;;;;;;;;;5037251;28;20064;-63
2022/04/23 06:40:31;;;;;;;15.25;11.68;;;;;;;;;;5037322;28;20042;-63
2022/04/23 06:42:57;;;;;;;12.63;10.70;;;;;;;;;;5037213;28;20438;-63
2022/04/23 06:45:23;;;;;;;15.68;10.68;;;;;;;;;;5038073;28;20037;-63
2022/04/23 06:47:57;;;;;;;14.32;11.05;;;;;;;;;;5036356;28;20041;-63
2022/04/23 06:50:23;;;;;;;14.60;11.15;;;;;;;;;;5037251;28;20044;-63
2022/04/23 06:52:49;;;;;;;14.40;11.48;;;;;;;;;;5036867;28;20472;-63
2022/04/23 06:55:15;;;;;;;13.18;10.55;;;;;;;;;;5036045;28;20355;-63
2022/04/23 06:57:44;;;;;;;13.45;11.15;;;;;;;;;;5036077;28;20404;-63
2022/04/23 07:00:11;;;;;;;13.25;10.57;;;;;;;;;;5036886;28;20120;-63
2022/04/23 07:02:37;;;;;;;12.93;11.45;;;;;;;;;;5035824;28;20053;-63
2022/04/23 07:05:03;;;;;;;13.50;10.40;;;;;;;;;;5035014;28;20054;-63
2022/04/23 07:07:29;;;;;;;13.30;11.13;;;;;;;;;;5036757;28;20075;-63
2022/04/23 07:09:55;;;;;;;13.95;11.18;;;;;;;;;;5035711;28;20034;-63
2022/04/23 07:12:21;;;;;;;14.50;11.30;;;;;;;;;;5037016;28;20049;-63
2022/04/23 07:14:47;;;;;;;13.40;10.48;;;;;;;;;;5036312;28;20042;-63
2022/04/23 07:17:13;;;;;;;13.98;11.23;;;;;;;;;;5035853;28;20081;-63
2022/04/23 07:19:40;;;;;;;14.27;11.25;;;;;;;;;;5035929;28;20044;-63
2022/04/23 07:22:06;;;;;;;14.25;10.93;;;;;;;;;;5036193;28;20073;-63
2022/04/23 07:24:32;;;;;;;15.70;11.00;;;;;;;;;;5035530;28;20116;-63
2022/04/23 07:26:59;;;;;;;14.93;11.10;;;;;;;;;;5036279;28;20466;-63
2022/04/23 07:29:26;;;;;;;13.98;11.30;;;;;;;;;;5036033;28;20407;-63
2022/04/23 07:31:52;;;;;;;14.48;11.57;;;;;;;;;;5035673;28;20037;-63
2022/04/23 07:39:48;;;;;;;13.88;10.73;;;;;;;;;;5034824;28;20049;-63
2022/04/23 07:42:14;;;;;;;14.23;10.90;;;;;;;;;;5034214;28;20049;-63
2022/04/23 07:44:40;;;;;;;13.85;11.02;;;;;;;;;;5035145;28;20486;-63
2022/04/23 07:47:07;;;;;;;13.68;11.63;;;;;;;;;;5034026;28;20052;-63
2022/04/23 07:49:33;;;;;;;15.35;10.90;;;;;;;;;;5017499;28;20392;-63
2022/04/23 07:51:59;;;;;;;18.05;11.50;;;;;;;;;;5035234;28;20049;-63
2022/04/23 07:54:26;;;;;;;14.10;10.07;;;;;;;;;;5033111;28;20047;-63
2022/04/23 07:56:52;;;;;;;17.08;10.32;;;;;;;;;;5033612;28;20056;-63
2022/04/23 07:59:20;;;;;;;12.40;10.00;;;;;;;;;;5034707;28;20045;-63
2022/04/23 08:01:46;;;;;;;12.63;10.23;;;;;;;;;;5034483;28;20049;-63
2022/04/23 08:04:12;;;;;;;12.77;9.82;;;;;;;;;;5035180;28;20451;-63
2022/04/23 08:06:38;;;;;;;11.45;8.70;;;;;;;;;;5034569;28;20132;-63
2022/04/23 08:09:04;;;;;;;14.27;9.07;;;;;;;;;;5033220;28;20044;-63
2022/04/23 08:11:30;;;;;;;11.82;8.63;;;;;;;;;;5034790;28;20038;-63
2022/04/23 08:13:57;;;;;;;11.52;8.77;;;;;;;;;;5034624;28;20048;-63
2022/04/23 08:16:23;;;;;;;11.70;9.18;;;;;;;;;;5034110;28;20042;-63
2022/04/23 08:18:49;;;;;;;11.38;8.93;;;;;;;;;;5034031;28;20048;-63
2022/04/23 08:21:15;;;;;;;11.48;8.57;;;;;;;;;;5034879;28;20037;-63
2022/04/23 08:23:42;;;;;;;11.70;9.25;;;;;;;;;;5033718;28;20449;-63
2022/04/23 08:26:08;;;;;;;10.43;8.75;;;;;;;;;;5033998;28;20037;-63
2022/04/23 08:31:19;;;;;;;11.23;9.27;;;;;;;;;;5033869;28;20303;-63
2022/04/23 08:33:57;;;;;;;16.48;9.15;;;;;;;;;;5033928;28;20045;-63
2022/04/23 08:36:24;;;;;;;11.40;8.77;;;;;;;;;;5031691;28;20392;-63
2022/04/23 08:38:51;;;;;;;11.50;8.73;;;;;;;;;;5033307;28;20478;-63
2022/04/23 08:41:17;;;;;;;12.07;9.13;;;;;;;;;;5034285;28;20424;-63
2022/04/23 08:43:43;;;;;;;15.65;9.98;;;;;;;;;;5033605;28;20052;-63
2022/04/23 08:46:09;;;;;;;14.55;9.38;;;;;;;;;;5033064;28;20392;-63
2022/04/23 08:48:37;;;;;;;12.10;8.85;;;;;;;;;;5034072;28;20480;-63
2022/04/23 08:51:05;;;;;;;17.00;9.50;;;;;;;;;;5033996;28;20048;-63
2022/04/23 08:53:32;;;;;;;13.25;9.43;;;;;;;;;;5033120;28;20099;-63
2022/04/23 08:55:59;;;;;;;12.20;9.38;;;;;;;;;;5032305;28;20172;-63
2022/04/23 08:58:25;;;;;;;12.38;9.57;;;;;;;;;;5034121;28;20045;-63
2022/04/23 09:00:51;;;;;;;12.23;9.27;;;;;;;;;;5033236;28;20048;-63
2022/04/23 09:03:17;;;;;;;12.35;9.32;;;;;;;;;;5033809;28;20042;-63
2022/04/23 09:05:43;;;;;;;16.42;9.02;;;;;;;;;;5033850;28;20089;-63
2022/04/23 09:08:10;;;;;;;14.80;9.38;;;;;;;;;;5033437;28;20045;-63
2022/04/23 09:11:05;;;;;;;12.00;9.68;;;;;;;;;;5035683;28;20041;-63
2022/04/23 09:13:32;;;;;;;17.10;9.90;;;;;;;;;;5021567;28;20399;-63
2022/04/23 09:24:43;;;;;;;13.15;9.90;;;;;;;;;;5037920;28;20080;-63
2022/04/23 09:27:09;;;;;;;13.05;9.50;;;;;;;;;;5038626;28;20037;-63
2022/04/23 09:29:35;;;;;;;10.63;9.38;;;;;;;;;;5036726;28;20456;-63
2022/04/23 09:32:12;;;;;;;11.63;10.40;;;;;;;;;;5035818;28;20049;-63
2022/04/23 09:34:38;;;;;;;12.88;9.70;;;;;;;;;;5037887;28;20075;-63
2022/04/23 09:37:06;;;;;;;12.18;9.10;;;;;;;;;;5036364;28;20191;-63
2022/04/23 09:39:34;;;;;;;12.70;9.70;;;;;;;;;;5036556;28;20506;-63
2022/04/23 09:42:17;;;;;;;12.73;10.23;;;;;;;;;;5036769;28;20057;-63
2022/04/23 09:44:44;;;;;;;13.73;9.95;;;;;;;;;;5038355;28;20052;-63
2022/04/23 09:47:10;;;;;;;13.02;9.80;;;;;;;;;;5036788;28;20049;-63
2022/04/23 09:49:38;;;;;;;14.95;9.95;;;;;;;;;;5037647;28;20069;-63
2022/04/23 09:52:08;;;;;;;12.95;9.95;;;;;;;;;;5038067;28;20053;-63
2022/04/23 09:54:35;;;;;;;12.10;9.25;;;;;;;;;;5035994;28;20131;-63
2022/04/23 09:57:03;;;;;;;11.50;10.30;;;;;;;;;;5037219;28;20510;-63
2022/04/23 09:59:29;;;;;;;12.63;9.82;;;;;;;;;;5037263;28;20049;-63
2022/04/23 10:01:56;;;;;;;15.10;10.85;;;;;;;;;;5036796;28;20045;-63
2022/04/23 10:04:23;;;;;;;13.32;9.52;;;;;;;;;;5037092;28;20136;-63
2022/04/23 10:06:53;;;;;;;12.57;9.63;;;;;;;;;;5037058;28;20449;-63
2022/04/23 10:09:26;;;;;;;11.25;10.00;;;;;;;;;;5036921;28;20038;-63
2022/04/23 10:12:10;;;;;;;12.68;10.70;;;;;;;;;;5037151;28;20044;-63
2022/04/23 10:14:40;;;;;;;15.73;9.82;;;;;;;;;;5036052;28;20064;-63
2022/04/23 10:17:10;;;;;;;12.10;9.10;;;;;;;;;;5035453;28;20052;-63
2022/04/23 10:19:36;;;;;;;12.25;8.75;;;;;;;;;;5037620;28;20467;-63
2022/04/23 10:22:14;;;;;;;12.20;10.10;;;;;;;;;;5036927;28;21996;-63
2022/04/23 10:24:49;;;;;;;13.27;10.05;;;;;;;;;;5036997;28;20072;-63
2022/04/23 10:27:19;;;;;;;14.20;9.63;;;;;;;;;;5037210;28;20044;-63
2022/04/23 10:29:45;;;;;;;12.20;9.63;;;;;;;;;;5036244;28;20068;-63
2022/04/23 10:32:12;;;;;;;15.77;10.27;;;;;;;;;;5034233;28;20136;-63
2022/04/23 10:34:38;;;;;;;12.57;9.77;;;;;;;;;;5037036;28;20050;-63
2022/04/23 10:37:22;;;;;;;13.70;10.00;;;;;;;;;;5036256;28;20692;-63
2022/04/23 10:39:51;;;;;;;12.98;9.45;;;;;;;;;;5036596;28;20420;-63
2022/04/23 10:42:18;;;;;;;12.88;9.45;;;;;;;;;;5036547;28;20048;-63
2022/04/23 10:44:44;;;;;;;12.90;9.15;;;;;;;;;;5036252;28;20047;-63
2022/04/23 10:47:36;;;;;;;13.77;8.95;;;;;;;;;;5035480;28;20045;-63
2022/04/23 10:50:31;;;;;;;11.05;9.00;;;;;;;;;;5026416;28;20045;-63
2022/04/23 10:53:02;;;;;;;10.68;9.15;;;;;;;;;;5022658;28;20049;-63
2022/04/23 10:55:28;;;;;;;13.15;9.80;;;;;;;;;;5036919;28;20491;-63
2022/04/23 10:57:57;;;;;;;11.82;8.50;;;;;;;;;;5034926;28;20511;-63
2022/04/23 11:00:30;;;;;;;11.23;9.10;;;;;;;;;;5035690;28;20045;-63
2022/04/23 11:02:56;;;;;;;10.15;8.52;;;;;;;;;;5036548;28;20049;-63
2022/04/23 11:13:49;;;;;;;13.52;8.32;;;;;;;;;;5035158;28;20397;-63
2022/04/23 11:16:19;;;;;;;10.95;8.27;;;;;;;;;;5034658;28;20543;-63
2022/04/23 11:18:46;;;;;;;11.27;8.52;;;;;;;;;;5034577;28;20376;-63
2022/04/23 11:21:17;;;;;;;10.98;7.75;;;;;;;;;;5034710;28;20045;-63
2022/04/23 11:23:45;;;;;;;9.82;8.48;;;;;;;;;;5035348;28;20068;-63
2022/04/23 11:26:15;;;;;;;9.88;7.97;;;;;;;;;;5034528;28;20479;-63
2022/04/23 11:28:41;;;;;;;10.02;7.80;;;;;;;;;;5033805;28;20129;-63
2022/04/23 11:31:11;;;;;;;11.65;7.93;;;;;;;;;;5035146;28;20041;-63
2022/04/23 11:33:38;;;;;;;11.98;7.97;;;;;;;;;;5034608;28;20558;-63
2022/04/23 11:36:04;;;;;;;9.73;8.18;;;;;;;;;;5033886;28;20042;-63
2022/04/23 11:38:30;;;;;;;17.52;8.38;;;;;;;;;;5034210;28;20419;-63
2022/04/23 11:40:56;;;;;;;9.88;7.97;;;;;;;;;;5034477;28;20041;-63
2022/04/23 11:43:29;;;;;;;12.98;8.77;;;;;;;;;;5033632;28;20069;-63
2022/04/23 11:46:00;;;;;;;14.40;8.68;;;;;;;;;;5034407;28;20041;-63
2022/04/23 11:48:26;;;;;;;11.70;7.63;;;;;;;;;;5033430;28;20041;-63
2022/04/23 11:51:04;;;;;;;10.82;7.75;;;;;;;;;;5033809;28;20499;-63
2022/04/23 11:53:46;;;;;;;9.38;7.22;;;;;;;;;;5033863;28;20642;-63
2022/04/23 11:56:19;;;;;;;8.43;7.57;;;;;;;;;;5033367;28;20091;-64
2022/04/23 11:58:45;;;;;;;8.73;6.90;;;;;;;;;;5032660;28;20064;-64
2022/04/23 12:01:12;;;;;;;8.93;6.65;;;;;;;;;;5048591;28;20419;-64
2022/04/23 12:03:47;;;;;;;7.53;6.60;;;;;;;;;;5033395;28;20435;-64
2022/04/23 12:06:13;;;;;;;10.25;7.03;;;;;;;;;;5031926;28;20049;-64
2022/04/23 12:08:39;;;;;;;10.73;7.05;;;;;;;;;;5032764;28;20052;-64
2022/04/23 12:11:19;;;;;;;7.68;6.32;;;;;;;;;;5032872;28;20041;-64
2022/04/23 12:13:48;;;;;;;8.60;7.10;;;;;;;;;;5030060;28;20171;-64
2022/04/23 12:16:14;;;;;;;8.77;6.38;;;;;;;;;;5030435;28;20103;-64
2022/04/23 12:18:41;;;;;;;11.05;7.63;;;;;;;;;;5031820;28;20478;-64
2022/04/23 12:21:07;;;;;;;7.68;6.90;;;;;;;;;;5030900;28;20103;-64
2022/04/23 12:23:40;;;;;;;8.35;7.55;;;;;;;;;;5032262;28;20107;-64
2022/04/23 12:26:09;;;;;;;9.50;6.82;;;;;;;;;;5031307;28;20042;-64
2022/04/23 12:42:24;;;;;;;11.98;6.38;;;;;;;;;;5030642;28;20107;-64
2022/04/23 12:44:52;;;;;;;9.38;5.95;;;;;;;;;;5030243;28;20037;-64
2022/04/23 12:47:28;;;;;;;8.02;5.95;;;;;;;;;;5030504;28;20496;-64
2022/04/23 12:49:55;;;;;;;7.03;5.57;;;;;;;;;;5030704;28;20041;-64
2022/04/23 12:52:27;;;;;;;7.03;5.45;;;;;;;;;;5028614;28;20084;-64
2022/04/23 12:55:12;;;;;;;6.15;5.50;;;;;;;;;;5032495;28;20553;-64
2022/04/23 12:57:39;;;;;;;6.85;5.35;;;;;;;;;;5033965;28;20076;-64
2022/04/23 13:00:06;;;;;;;5.53;4.95;;;;;;;;;;5034555;28;20494;-64
2022/04/23 13:02:36;;;;;;;7.53;5.25;;;;;;;;;;5032817;28;20054;-64
2022/04/23 13:05:03;;;;;;;6.05;5.35;;;;;;;;;;5033719;28;20514;-64
2022/04/23 13:10:13;;;;;;;10.07;5.03;;;;;;;;;;5034298;28;20466;-64
2022/04/23 13:12:39;;;;;;;5.80;4.80;;;;;;;;;;5032234;28;20050;-64
2022/04/23 13:15:05;;;;;;;6.47;5.28;;;;;;;;;;5034087;28;20052;-64
2022/04/23 13:17:31;;;;;;;8.07;4.72;;;;;;;;;;5033973;28;20389;-64
2022/04/23 13:19:57;;;;;;;4.88;4.47;;;;;;;;;;5033603;28;20045;-64
2022/04/23 13:22:23;;;;;;;7.38;4.97;;;;;;;;;;5033658;28;20036;-64
2022/04/23 13:24:49;;;;;;;5.88;4.40;;;;;;;;;;5033882;28;20494;-64
2022/04/23 13:27:16;;;;;;;6.53;4.45;;;;;;;;;;5032956;28;20066;-64
2022/04/23 13:29:42;;;;;;;5.13;3.88;;;;;;;;;;5033409;28;20041;-64
2022/04/23 13:32:08;;;;;;;11.13;4.80;;;;;;;;;;5033930;28;20039;-64
2022/04/23 13:34:34;;;;;;;4.95;4.43;;;;;;;;;;5048217;28;20042;-64
2022/04/23 13:37:02;;;;;;;7.05;4.78;;;;;;;;;;5033537;28;20063;-64
2022/04/23 13:39:28;;;;;;;9.20;4.88;;;;;;;;;;5033457;28;20049;-64
2022/04/23 13:41:54;;;;;;;8.10;4.88;;;;;;;;;;5032746;28;20033;-64
2022/04/23 13:44:21;;;;;;;6.35;4.60;;;;;;;;;;5033609;28;20144;-64
2022/04/23 13:46:49;;;;;;;7.40;4.50;;;;;;;;;;5031692;28;20037;-64
2022/04/23 13:49:15;;;;;;;5.80;4.65;;;;;;;;;;5032788;28;20506;-64
2022/04/23 13:51:41;;;;;;;5.90;4.57;;;;;;;;;;5031738;28;20037;-64
2022/04/23 13:54:07;;;;;;;5.60;5.10;;;;;;;;;;5033292;28;20041;-64
2022/04/23 13:56:33;;;;;;;5.55;4.72;;;;;;;;;;5032907;28;20677;-64
2022/04/23 13:58:59;;;;;;;7.05;4.80;;;;;;;;;;5032340;28;20116;-64
2022/04/23 14:01:25;;;;;;;5.03;4.57;;;;;;;;;;5032850;28;20117;-64
2022/04/23 14:12:05;;;;;;;7.50;4.63;;;;;;;;;;5032328;28;20504;-65
2022/04/23 14:14:32;;;;;;;6.57;3.65;;;;;;;;;;5032592;28;20041;-65
2022/04/23 14:16:58;;;;;;;6.13;4.40;;;;;;;;;;5031380;28;20052;-65
2022/04/23 14:19:24;;;;;;;4.78;4.03;;;;;;;;;;5031796;28;20133;-65
2022/04/23 14:21:49;;;;;;;6.38;4.90;;;;;;;;;;5032693;28;20095;-65
2022/04/23 14:24:15;;;;;;;4.20;3.80;;;;;;;;;;5032439;28;20044;-65
2022/04/23 14:26:41;;;;;;;7.60;4.15;;;;;;;;;;5031837;28;20049;-65
2022/04/23 14:29:07;;;;;;;5.30;4.10;;;;;;;;;;5032244;28;20094;-65
2022/04/23 14:31:33;;;;;;;5.05;4.38;;;;;;;;;;5032504;28;20065;-65
2022/04/23 14:33:59;;;;;;;8.23;4.80;;;;;;;;;;5031989;28;20326;-65
2022/04/23 14:36:25;;;;;;;6.05;4.10;;;;;;;;;;5032091;28;20049;-65
2022/04/23 14:38:53;;;;;;;7.03;3.75;;;;;;;;;;5032320;28;20045;-65
2022/04/23 14:41:19;;;;;;;5.00;4.13;;;;;;;;;;5031485;28;20114;-65
2022/04/23 14:43:45;;;;;;;6.95;4.30;;;;;;;;;;5032249;28;20037;-65
2022/04/23 14:46:11;;;;;;;5.13;3.83;;;;;;;;;;5032108;28;20054;-65
2022/04/23 14:48:37;;;;;;;5.22;4.15;;;;;;;;;;5031623;28;20045;-65
2022/04/23 14:53:48;;;;;;;5.07;3.50;;;;;;;;;;5032117;28;20108;-65
2022/04/23 14:56:14;;;;;;;5.40;3.78;;;;;;;;;;5031321;28;20434;-65
2022/04/23 14:58:40;;;;;;;4.72;3.28;;;;;;;;;;5030496;28;20045;-65
2022/04/23 15:01:06;;;;;;;4.88;3.72;;;;;;;;;;5031809;28;20417;-65
2022/04/23 15:03:32;;;;;;;3.83;3.45;;;;;;;;;;5030944;28;20040;-65
2022/04/23 15:05:59;;;;;;;5.15;3.20;;;;;;;;;;5031466;28;20068;-65
2022/04/23 15:08:25;;;;;;;4.90;2.97;;;;;;;;;;5031715;28;20451;-65
2022/04/23 15:10:51;;;;;;;5.00;2.92;;;;;;;;;;5031207;28;20095;-65
2022/04/23 15:13:17;;;;;;;5.63;2.92;;;;;;;;;;5031766;28;20045;-65
2022/04/23 15:15:43;;;;;;;5.85;2.72;;;;;;;;;;5031732;28;20392;-65
2022/04/23 15:18:09;;;;;;;3.80;2.63;;;;;;;;;;5029915;28;20037;-65
2022/04/23 15:20:35;;;;;;;8.00;2.97;;;;;;;;;;5031464;28;20041;-63
2022/04/23 15:23:01;;;;;;;4.50;2.97;;;;;;;;;;5031532;28;20049;-63
2022/04/23 15:25:27;;;;;;;5.03;3.38;;;;;;;;;;5031178;28;20041;-63